sensor_id;sensor_type;location;lat;lon;timestamp;noise_LAeq;noise_LA_min;noise_LA_max;noise_LA01;noise_LA95
61321;Laerm;17737;52.586;13.284;2023-01-01T00:00:48;75.25;52.57;104.23;;
61321;Laerm;17737;52.586;13.284;2023-01-01T00:03:17;71.52;51.78;99.49;;
61321;Laerm;17737;52.586;13.284;2023-01-01T00:05:45;75.31;51.86;101.73;;
61321;Laerm;17737;52.586;13.284;2023-01-01T00:08:13;75.51;51.68;103.78;;
61321;Laerm;17737;52.586;13.284;2023-01-01T00:10:41;79.88;51.92;102.76;;
61321;Laerm;17737;52.586;13.284;2023-01-01T00:13:12;65.39;51.81;91.92;;
61321;Laerm;17737;52.586;13.284;2023-01-01T00:15:42;68.36;51.60;101.30;;
61321;Laerm;17737;52.586;13.284;2023-01-01T00:18:10;66.26;51.41;95.48;;
61321;Laerm;17737;52.586;13.284;2023-01-01T00:20:38;63.00;51.52;89.52;;
61321;Laerm;17737;52.586;13.284;2023-01-01T00:23:06;65.29;51.38;96.18;;
61321;Laerm;17737;52.586;13.284;2023-01-01T00:25:34;71.60;51.07;100.96;;
61321;Laerm;17737;52.586;13.284;2023-01-01T00:28:02;63.69;51.28;85.52;;
61321;Laerm;17737;52.586;13.284;2023-01-01T00:30:31;73.75;51.09;105.01;;
61321;Laerm;17737;52.586;13.284;2023-01-01T00:33:00;69.41;51.20;101.54;;
61321;Laerm;17737;52.586;13.284;2023-01-01T00:35:28;57.55;51.38;80.62;;
61321;Laerm;17737;52.586;13.284;2023-01-01T00:37:56;57.28;50.91;79.29;;
61321;Laerm;17737;52.586;13.284;2023-01-01T00:40:24;60.87;51.09;81.74;;
61321;Laerm;17737;52.586;13.284;2023-01-01T00:42:53;59.55;51.53;82.97;;
61321;Laerm;17737;52.586;13.284;2023-01-01T00:45:21;60.34;51.17;84.72;;
61321;Laerm;17737;52.586;13.284;2023-01-01T00:47:50;60.11;51.27;88.23;;
61321;Laerm;17737;52.586;13.284;2023-01-01T00:50:22;68.27;51.37;87.57;;
61321;Laerm;17737;52.586;13.284;2023-01-01T00:52:50;60.70;50.98;92.50;;
61321;Laerm;17737;52.586;13.284;2023-01-01T00:55:19;67.17;51.23;93.83;;
61321;Laerm;17737;52.586;13.284;2023-01-01T00:57:47;80.87;51.65;111.98;;
61321;Laerm;17737;52.586;13.284;2023-01-01T01:00:16;56.39;51.01;73.44;;
61321;Laerm;17737;52.586;13.284;2023-01-01T01:02:44;57.93;51.01;80.21;;
61321;Laerm;17737;52.586;13.284;2023-01-01T01:05:12;58.44;50.89;86.50;;
61321;Laerm;17737;52.586;13.284;2023-01-01T01:07:42;61.49;51.08;85.48;;
61321;Laerm;17737;52.586;13.284;2023-01-01T01:10:10;59.43;51.54;83.49;;
61321;Laerm;17737;52.586;13.284;2023-01-01T01:12:39;58.21;50.87;81.52;;
61321;Laerm;17737;52.586;13.284;2023-01-01T01:15:09;55.43;51.16;71.56;;
61321;Laerm;17737;52.586;13.284;2023-01-01T01:17:37;59.46;51.02;84.70;;
61321;Laerm;17737;52.586;13.284;2023-01-01T01:20:07;56.70;51.19;79.41;;
61321;Laerm;17737;52.586;13.284;2023-01-01T01:22:36;57.32;50.94;81.10;;
61321;Laerm;17737;52.586;13.284;2023-01-01T01:25:06;60.96;50.84;92.93;;
61321;Laerm;17737;52.586;13.284;2023-01-01T01:27:35;69.82;50.92;99.07;;
61321;Laerm;17737;52.586;13.284;2023-01-01T01:30:04;65.89;50.84;99.61;;
61321;Laerm;17737;52.586;13.284;2023-01-01T01:32:32;72.82;50.99;95.63;;
61321;Laerm;17737;52.586;13.284;2023-01-01T01:35:00;71.32;50.76;95.39;;
61321;Laerm;17737;52.586;13.284;2023-01-01T01:37:28;70.56;50.82;98.85;;
61321;Laerm;17737;52.586;13.284;2023-01-01T01:39:56;58.18;50.69;85.72;;
61321;Laerm;17737;52.586;13.284;2023-01-01T01:42:26;56.28;51.18;74.43;;
61321;Laerm;17737;52.586;13.284;2023-01-01T01:44:58;53.61;50.64;66.42;;
61321;Laerm;17737;52.586;13.284;2023-01-01T01:47:32;54.60;50.70;73.06;;
61321;Laerm;17737;52.586;13.284;2023-01-01T01:50:11;58.13;50.92;74.62;;
61321;Laerm;17737;52.586;13.284;2023-01-01T01:52:57;54.21;50.83;72.71;;
61321;Laerm;17737;52.586;13.284;2023-01-01T01:55:30;56.41;50.81;74.78;;
61321;Laerm;17737;52.586;13.284;2023-01-01T01:58:01;55.58;50.80;80.86;;
61321;Laerm;17737;52.586;13.284;2023-01-01T02:00:30;54.50;50.87;79.33;;
61321;Laerm;17737;52.586;13.284;2023-01-01T02:03:04;54.70;50.83;66.58;;
61321;Laerm;17737;52.586;13.284;2023-01-01T02:05:34;54.71;50.74;69.14;;
61321;Laerm;17737;52.586;13.284;2023-01-01T02:08:04;54.42;50.82;66.70;;
61321;Laerm;17737;52.586;13.284;2023-01-01T02:10:33;54.38;50.68;70.13;;
61321;Laerm;17737;52.586;13.284;2023-01-01T02:13:04;53.28;50.73;70.25;;
61321;Laerm;17737;52.586;13.284;2023-01-01T02:15:39;53.25;50.47;65.15;;
61321;Laerm;17737;52.586;13.284;2023-01-01T02:18:12;52.37;50.65;70.45;;
61321;Laerm;17737;52.586;13.284;2023-01-01T02:20:51;53.61;50.56;72.24;;
61321;Laerm;17737;52.586;13.284;2023-01-01T02:26:49;53.60;50.38;77.10;;
61321;Laerm;17737;52.586;13.284;2023-01-01T02:29:52;53.97;50.54;63.18;;
61321;Laerm;17737;52.586;13.284;2023-01-01T02:32:27;54.28;50.57;69.37;;
61321;Laerm;17737;52.586;13.284;2023-01-01T02:35:01;54.61;50.73;65.93;;
61321;Laerm;17737;52.586;13.284;2023-01-01T02:37:59;53.89;50.77;70.17;;
61321;Laerm;17737;52.586;13.284;2023-01-01T02:40:35;53.23;50.63;61.32;;
61321;Laerm;17737;52.586;13.284;2023-01-01T02:43:05;53.28;50.46;63.07;;
61321;Laerm;17737;52.586;13.284;2023-01-01T02:45:35;54.92;50.64;73.06;;
61321;Laerm;17737;52.586;13.284;2023-01-01T02:48:04;52.84;50.66;65.42;;
61321;Laerm;17737;52.586;13.284;2023-01-01T02:50:34;54.36;50.49;81.74;;
61321;Laerm;17737;52.586;13.284;2023-01-01T02:53:16;52.81;50.54;60.15;;
61321;Laerm;17737;52.586;13.284;2023-01-01T02:56:04;53.26;50.76;60.95;;
61321;Laerm;17737;52.586;13.284;2023-01-01T02:58:44;53.19;50.57;60.19;;
61321;Laerm;17737;52.586;13.284;2023-01-01T03:01:42;54.50;50.55;63.50;;
61321;Laerm;17737;52.586;13.284;2023-01-01T03:04:24;53.06;50.60;59.82;;
61321;Laerm;17737;52.586;13.284;2023-01-01T03:07:02;51.91;50.55;64.52;;
61321;Laerm;17737;52.586;13.284;2023-01-01T03:09:42;53.38;50.44;64.22;;
61321;Laerm;17737;52.586;13.284;2023-01-01T03:12:22;53.36;50.69;64.49;;
61321;Laerm;17737;52.586;13.284;2023-01-01T03:15:18;54.39;50.47;70.40;;
61321;Laerm;17737;52.586;13.284;2023-01-01T03:17:57;57.43;50.79;86.93;;
61321;Laerm;17737;52.586;13.284;2023-01-01T03:20:32;52.46;50.50;62.16;;
61321;Laerm;17737;52.586;13.284;2023-01-01T03:23:06;52.84;50.57;67.89;;
61321;Laerm;17737;52.586;13.284;2023-01-01T03:25:44;52.91;50.48;65.83;;
61321;Laerm;17737;52.586;13.284;2023-01-01T03:28:17;53.52;50.56;76.09;;
61321;Laerm;17737;52.586;13.284;2023-01-01T03:30:48;51.93;50.73;62.31;;
61321;Laerm;17737;52.586;13.284;2023-01-01T03:33:25;52.93;50.71;66.59;;
61321;Laerm;17737;52.586;13.284;2023-01-01T03:36:02;52.28;50.55;69.11;;
61321;Laerm;17737;52.586;13.284;2023-01-01T03:38:38;53.03;50.61;61.40;;
61321;Laerm;17737;52.586;13.284;2023-01-01T03:41:16;53.88;50.73;65.56;;
61321;Laerm;17737;52.586;13.284;2023-01-01T03:43:53;52.58;50.52;62.43;;
61321;Laerm;17737;52.586;13.284;2023-01-01T03:46:29;53.12;50.58;68.82;;
61321;Laerm;17737;52.586;13.284;2023-01-01T03:49:01;52.90;50.63;62.31;;
61321;Laerm;17737;52.586;13.284;2023-01-01T03:51:50;54.35;50.61;68.67;;
61321;Laerm;17737;52.586;13.284;2023-01-01T03:54:32;79.07;50.73;111.27;;
61321;Laerm;17737;52.586;13.284;2023-01-01T03:57:11;61.97;50.66;93.87;;
61321;Laerm;17737;52.586;13.284;2023-01-01T03:59:51;52.25;50.71;60.79;;
61321;Laerm;17737;52.586;13.284;2023-01-01T04:02:25;52.96;50.45;64.32;;
61321;Laerm;17737;52.586;13.284;2023-01-01T04:04:58;51.97;50.59;59.04;;
61321;Laerm;17737;52.586;13.284;2023-01-01T04:07:29;53.37;50.55;65.25;;
61321;Laerm;17737;52.586;13.284;2023-01-01T04:10:01;51.88;50.36;56.02;;
61321;Laerm;17737;52.586;13.284;2023-01-01T04:12:46;52.29;50.49;58.73;;
61321;Laerm;17737;52.586;13.284;2023-01-01T04:15:16;52.82;50.59;61.90;;
61321;Laerm;17737;52.586;13.284;2023-01-01T04:17:44;52.45;50.62;64.16;;
61321;Laerm;17737;52.586;13.284;2023-01-01T04:20:15;52.31;50.56;58.23;;
61321;Laerm;17737;52.586;13.284;2023-01-01T04:22:44;52.24;50.59;57.62;;
61321;Laerm;17737;52.586;13.284;2023-01-01T04:25:13;53.00;50.58;60.97;;
61321;Laerm;17737;52.586;13.284;2023-01-01T04:27:43;52.33;50.59;71.45;;
61321;Laerm;17737;52.586;13.284;2023-01-01T04:30:13;52.28;50.66;58.97;;
61321;Laerm;17737;52.586;13.284;2023-01-01T04:32:42;51.84;50.70;53.69;;
61321;Laerm;17737;52.586;13.284;2023-01-01T04:35:14;52.75;50.58;62.81;;
61321;Laerm;17737;52.586;13.284;2023-01-01T04:37:44;51.85;50.45;54.69;;
61321;Laerm;17737;52.586;13.284;2023-01-01T04:40:13;52.27;50.63;61.97;;
61321;Laerm;17737;52.586;13.284;2023-01-01T04:42:41;53.16;50.57;64.12;;
61321;Laerm;17737;52.586;13.284;2023-01-01T04:45:10;51.83;50.37;54.48;;
61321;Laerm;17737;52.586;13.284;2023-01-01T04:47:41;53.03;50.63;62.53;;
61321;Laerm;17737;52.586;13.284;2023-01-01T04:50:09;52.14;50.44;57.40;;
61321;Laerm;17737;52.586;13.284;2023-01-01T04:52:39;52.70;50.68;60.50;;
61321;Laerm;17737;52.586;13.284;2023-01-01T04:55:08;51.89;50.49;64.21;;
61321;Laerm;17737;52.586;13.284;2023-01-01T04:57:36;52.15;50.46;63.91;;
61321;Laerm;17737;52.586;13.284;2023-01-01T05:00:05;53.75;50.29;63.83;;
61321;Laerm;17737;52.586;13.284;2023-01-01T05:02:33;52.37;50.59;58.34;;
61321;Laerm;17737;52.586;13.284;2023-01-01T05:05:02;51.82;50.59;53.37;;
61321;Laerm;17737;52.586;13.284;2023-01-01T05:07:32;51.89;50.66;62.90;;
61321;Laerm;17737;52.586;13.284;2023-01-01T05:10:02;52.36;50.55;64.66;;
61321;Laerm;17737;52.586;13.284;2023-01-01T05:12:30;54.75;50.59;83.27;;
61321;Laerm;17737;52.586;13.284;2023-01-01T05:14:58;52.35;50.65;65.69;;
61321;Laerm;17737;52.586;13.284;2023-01-01T05:17:26;54.24;50.54;77.00;;
61321;Laerm;17737;52.586;13.284;2023-01-01T05:19:54;53.58;50.60;75.53;;
61321;Laerm;17737;52.586;13.284;2023-01-01T05:22:22;53.64;50.42;78.38;;
61321;Laerm;17737;52.586;13.284;2023-01-01T05:24:50;54.11;50.68;67.14;;
61321;Laerm;17737;52.586;13.284;2023-01-01T05:27:19;52.02;50.62;54.92;;
61321;Laerm;17737;52.586;13.284;2023-01-01T05:29:47;52.06;50.67;64.59;;
61321;Laerm;17737;52.586;13.284;2023-01-01T05:32:15;53.02;50.61;74.70;;
61321;Laerm;17737;52.586;13.284;2023-01-01T05:34:43;53.25;50.57;59.66;;
61321;Laerm;17737;52.586;13.284;2023-01-01T05:37:11;51.95;50.55;53.99;;
61321;Laerm;17737;52.586;13.284;2023-01-01T05:39:39;53.52;50.61;78.51;;
61321;Laerm;17737;52.586;13.284;2023-01-01T05:42:07;52.31;50.37;73.80;;
61321;Laerm;17737;52.586;13.284;2023-01-01T05:44:37;52.12;50.60;71.57;;
61321;Laerm;17737;52.586;13.284;2023-01-01T05:47:05;53.04;50.56;63.82;;
61321;Laerm;17737;52.586;13.284;2023-01-01T05:49:33;55.28;50.43;82.44;;
61321;Laerm;17737;52.586;13.284;2023-01-01T05:52:02;51.88;50.57;60.49;;
61321;Laerm;17737;52.586;13.284;2023-01-01T05:54:30;53.32;50.65;63.51;;
61321;Laerm;17737;52.586;13.284;2023-01-01T05:56:58;52.56;50.55;61.13;;
61321;Laerm;17737;52.586;13.284;2023-01-01T05:59:26;52.66;50.60;61.03;;
61321;Laerm;17737;52.586;13.284;2023-01-01T06:01:55;51.83;50.61;53.48;;
61321;Laerm;17737;52.586;13.284;2023-01-01T06:04:23;51.86;50.70;64.77;;
61321;Laerm;17737;52.586;13.284;2023-01-01T06:06:52;51.84;50.57;54.12;;
61321;Laerm;17737;52.586;13.284;2023-01-01T06:09:20;52.26;50.74;57.42;;
61321;Laerm;17737;52.586;13.284;2023-01-01T06:11:48;51.81;50.57;53.35;;
61321;Laerm;17737;52.586;13.284;2023-01-01T06:14:16;51.88;50.46;54.83;;
61321;Laerm;17737;52.586;13.284;2023-01-01T06:16:44;51.80;50.48;54.03;;
61321;Laerm;17737;52.586;13.284;2023-01-01T06:19:13;52.47;50.68;63.60;;
61321;Laerm;17737;52.586;13.284;2023-01-01T06:21:41;52.74;50.51;66.53;;
61321;Laerm;17737;52.586;13.284;2023-01-01T06:24:09;52.47;50.60;60.54;;
61321;Laerm;17737;52.586;13.284;2023-01-01T06:26:37;52.21;50.59;58.53;;
61321;Laerm;17737;52.586;13.284;2023-01-01T06:29:05;51.87;50.71;53.96;;
61321;Laerm;17737;52.586;13.284;2023-01-01T06:31:33;52.53;50.61;60.84;;
61321;Laerm;17737;52.586;13.284;2023-01-01T06:34:06;51.83;50.63;53.56;;
61321;Laerm;17737;52.586;13.284;2023-01-01T06:36:36;52.52;50.27;62.65;;
61321;Laerm;17737;52.586;13.284;2023-01-01T06:39:04;52.70;50.63;62.01;;
61321;Laerm;17737;52.586;13.284;2023-01-01T06:41:33;51.89;50.54;60.84;;
61321;Laerm;17737;52.586;13.284;2023-01-01T06:44:01;51.84;50.66;55.45;;
61321;Laerm;17737;52.586;13.284;2023-01-01T06:46:31;52.22;50.46;57.31;;
61321;Laerm;17737;52.586;13.284;2023-01-01T06:49:02;53.31;50.60;61.08;;
61321;Laerm;17737;52.586;13.284;2023-01-01T06:51:35;52.39;50.54;59.12;;
61321;Laerm;17737;52.586;13.284;2023-01-01T06:54:05;52.07;50.44;63.55;;
61321;Laerm;17737;52.586;13.284;2023-01-01T06:56:34;52.57;50.49;60.90;;
61321;Laerm;17737;52.586;13.284;2023-01-01T06:59:03;52.50;50.60;66.64;;
61321;Laerm;17737;52.586;13.284;2023-01-01T07:01:34;51.93;50.52;57.07;;
61321;Laerm;17737;52.586;13.284;2023-01-01T07:04:05;51.89;50.36;56.77;;
61321;Laerm;17737;52.586;13.284;2023-01-01T07:06:35;53.09;50.32;62.27;;
61321;Laerm;17737;52.586;13.284;2023-01-01T07:09:06;52.01;50.39;63.31;;
61321;Laerm;17737;52.586;13.284;2023-01-01T07:11:35;52.00;50.55;59.76;;
61321;Laerm;17737;52.586;13.284;2023-01-01T07:14:03;52.95;50.70;62.99;;
61321;Laerm;17737;52.586;13.284;2023-01-01T07:16:31;52.53;50.65;59.82;;
61321;Laerm;17737;52.586;13.284;2023-01-01T07:18:59;52.23;50.70;60.79;;
61321;Laerm;17737;52.586;13.284;2023-01-01T07:21:30;51.93;50.70;57.89;;
61321;Laerm;17737;52.586;13.284;2023-01-01T07:24:01;51.95;50.53;57.78;;
61321;Laerm;17737;52.586;13.284;2023-01-01T07:26:32;52.50;50.70;60.06;;
61321;Laerm;17737;52.586;13.284;2023-01-01T07:29:00;51.90;50.65;56.78;;
61321;Laerm;17737;52.586;13.284;2023-01-01T07:31:35;51.84;50.50;53.94;;
61321;Laerm;17737;52.586;13.284;2023-01-01T07:34:04;53.14;50.62;65.81;;
61321;Laerm;17737;52.586;13.284;2023-01-01T07:36:32;52.01;50.64;58.48;;
61321;Laerm;17737;52.586;13.284;2023-01-01T07:39:01;52.52;50.72;60.10;;
61321;Laerm;17737;52.586;13.284;2023-01-01T07:41:30;53.40;50.66;65.57;;
61321;Laerm;17737;52.586;13.284;2023-01-01T07:43:58;51.94;50.23;62.96;;
61321;Laerm;17737;52.586;13.284;2023-01-01T07:46:26;53.55;50.60;62.61;;
61321;Laerm;17737;52.586;13.284;2023-01-01T07:48:55;52.24;50.68;57.80;;
61321;Laerm;17737;52.586;13.284;2023-01-01T07:51:23;51.87;50.59;55.24;;
61321;Laerm;17737;52.586;13.284;2023-01-01T07:53:51;52.93;50.58;62.66;;
61321;Laerm;17737;52.586;13.284;2023-01-01T07:56:19;52.76;50.70;61.52;;
61321;Laerm;17737;52.586;13.284;2023-01-01T07:58:48;52.03;50.63;64.68;;
61321;Laerm;17737;52.586;13.284;2023-01-01T08:01:16;51.99;50.53;61.58;;
61321;Laerm;17737;52.586;13.284;2023-01-01T08:03:50;53.43;50.58;63.01;;
61321;Laerm;17737;52.586;13.284;2023-01-01T08:06:19;52.50;50.57;60.99;;
61321;Laerm;17737;52.586;13.284;2023-01-01T08:08:48;51.85;50.54;53.93;;
61321;Laerm;17737;52.586;13.284;2023-01-01T08:11:16;53.40;50.54;62.82;;
61321;Laerm;17737;52.586;13.284;2023-01-01T08:13:44;52.57;50.72;67.07;;
61321;Laerm;17737;52.586;13.284;2023-01-01T08:16:13;52.13;50.57;72.73;;
61321;Laerm;17737;52.586;13.284;2023-01-01T08:18:41;52.58;50.51;62.99;;
61321;Laerm;17737;52.586;13.284;2023-01-01T08:21:09;52.27;50.60;57.32;;
61321;Laerm;17737;52.586;13.284;2023-01-01T08:23:37;51.85;50.47;54.21;;
61321;Laerm;17737;52.586;13.284;2023-01-01T08:26:05;52.10;50.40;59.15;;
61321;Laerm;17737;52.586;13.284;2023-01-01T08:28:34;52.24;50.62;58.28;;
61321;Laerm;17737;52.586;13.284;2023-01-01T08:31:02;52.85;50.62;64.40;;
61321;Laerm;17737;52.586;13.284;2023-01-01T08:33:32;51.85;50.59;53.71;;
61321;Laerm;17737;52.586;13.284;2023-01-01T08:36:00;52.57;50.51;63.45;;
61321;Laerm;17737;52.586;13.284;2023-01-01T08:38:28;52.62;50.61;59.20;;
61321;Laerm;17737;52.586;13.284;2023-01-01T08:40:56;52.47;50.58;62.09;;
61321;Laerm;17737;52.586;13.284;2023-01-01T08:43:24;51.86;50.48;53.83;;
61321;Laerm;17737;52.586;13.284;2023-01-01T08:45:52;52.77;50.47;61.97;;
61321;Laerm;17737;52.586;13.284;2023-01-01T08:48:20;53.34;50.65;63.09;;
61321;Laerm;17737;52.586;13.284;2023-01-01T08:50:59;52.30;50.64;60.47;;
61321;Laerm;17737;52.586;13.284;2023-01-01T08:53:29;52.07;50.41;57.45;;
61321;Laerm;17737;52.586;13.284;2023-01-01T08:56:00;51.93;50.69;54.84;;
61321;Laerm;17737;52.586;13.284;2023-01-01T08:58:30;52.06;50.75;58.93;;
61321;Laerm;17737;52.586;13.284;2023-01-01T09:00:58;53.06;50.50;63.33;;
61321;Laerm;17737;52.586;13.284;2023-01-01T09:03:27;53.37;50.89;61.01;;
61321;Laerm;17737;52.586;13.284;2023-01-01T09:05:57;52.82;50.82;61.86;;
61321;Laerm;17737;52.586;13.284;2023-01-01T09:08:25;56.56;50.52;79.86;;
61321;Laerm;17737;52.586;13.284;2023-01-01T09:11:00;52.41;50.66;64.34;;
61321;Laerm;17737;52.586;13.284;2023-01-01T09:13:30;53.42;50.58;64.36;;
61321;Laerm;17737;52.586;13.284;2023-01-01T09:15:59;52.80;50.62;62.51;;
61321;Laerm;17737;52.586;13.284;2023-01-01T09:18:27;52.75;50.63;58.63;;
61321;Laerm;17737;52.586;13.284;2023-01-01T09:20:57;54.09;50.80;63.46;;
61321;Laerm;17737;52.586;13.284;2023-01-01T09:23:25;52.37;50.77;64.44;;
61321;Laerm;17737;52.586;13.284;2023-01-01T09:25:53;53.55;50.75;61.46;;
61321;Laerm;17737;52.586;13.284;2023-01-01T09:28:21;52.50;50.39;60.66;;
61321;Laerm;17737;52.586;13.284;2023-01-01T09:30:51;52.74;50.57;59.70;;
61321;Laerm;17737;52.586;13.284;2023-01-01T09:33:19;51.91;50.64;55.31;;
61321;Laerm;17737;52.586;13.284;2023-01-01T09:35:47;54.04;50.49;68.02;;
61321;Laerm;17737;52.586;13.284;2023-01-01T09:38:17;52.04;50.66;57.61;;
61321;Laerm;17737;52.586;13.284;2023-01-01T09:40:58;53.93;50.74;65.28;;
61321;Laerm;17737;52.586;13.284;2023-01-01T09:43:42;53.28;50.41;63.26;;
61321;Laerm;17737;52.586;13.284;2023-01-01T09:46:14;52.53;50.48;59.32;;
61321;Laerm;17737;52.586;13.284;2023-01-01T09:48:52;53.22;50.64;66.41;;
61321;Laerm;17737;52.586;13.284;2023-01-01T09:51:26;52.35;50.60;63.05;;
61321;Laerm;17737;52.586;13.284;2023-01-01T09:54:05;53.71;50.73;61.76;;
61321;Laerm;17737;52.586;13.284;2023-01-01T09:56:39;53.74;50.65;64.15;;
61321;Laerm;17737;52.586;13.284;2023-01-01T09:59:09;52.33;50.35;57.87;;
61321;Laerm;17737;52.586;13.284;2023-01-01T10:01:43;51.99;50.70;57.12;;
61321;Laerm;17737;52.586;13.284;2023-01-01T10:04:40;52.76;50.72;61.81;;
61321;Laerm;17737;52.586;13.284;2023-01-01T10:07:23;52.70;50.64;70.67;;
61321;Laerm;17737;52.586;13.284;2023-01-01T10:10:08;52.23;50.46;59.91;;
61321;Laerm;17737;52.586;13.284;2023-01-01T10:12:52;53.98;50.71;62.24;;
61321;Laerm;17737;52.586;13.284;2023-01-01T10:15:30;53.77;50.51;61.91;;
61321;Laerm;17737;52.586;13.284;2023-01-01T10:18:08;54.34;50.83;62.36;;
61321;Laerm;17737;52.586;13.284;2023-01-01T10:20:45;53.56;50.69;62.32;;
61321;Laerm;17737;52.586;13.284;2023-01-01T10:23:19;52.76;50.61;58.16;;
61321;Laerm;17737;52.586;13.284;2023-01-01T10:25:52;53.21;50.82;60.83;;
61321;Laerm;17737;52.586;13.284;2023-01-01T10:28:29;53.98;50.42;64.58;;
61321;Laerm;17737;52.586;13.284;2023-01-01T10:31:19;54.38;50.74;67.99;;
61321;Laerm;17737;52.586;13.284;2023-01-01T10:33:49;52.16;50.49;62.42;;
61321;Laerm;17737;52.586;13.284;2023-01-01T10:36:19;53.63;50.66;63.13;;
61321;Laerm;17737;52.586;13.284;2023-01-01T10:38:48;53.03;50.58;64.62;;
61321;Laerm;17737;52.586;13.284;2023-01-01T10:41:18;53.16;50.79;59.68;;
61321;Laerm;17737;52.586;13.284;2023-01-01T10:43:48;54.06;50.75;63.38;;
61321;Laerm;17737;52.586;13.284;2023-01-01T10:46:21;54.86;50.90;64.44;;
61321;Laerm;17737;52.586;13.284;2023-01-01T10:49:07;52.52;50.64;57.59;;
61321;Laerm;17737;52.586;13.284;2023-01-01T10:51:43;52.88;50.74;62.58;;
61321;Laerm;17737;52.586;13.284;2023-01-01T10:54:31;52.99;50.69;59.18;;
61321;Laerm;17737;52.586;13.284;2023-01-01T10:57:13;54.39;50.69;76.94;;
61321;Laerm;17737;52.586;13.284;2023-01-01T10:59:43;53.48;50.65;68.29;;
61321;Laerm;17737;52.586;13.284;2023-01-01T11:02:23;54.28;50.75;64.57;;
61321;Laerm;17737;52.586;13.284;2023-01-01T11:05:11;55.10;51.05;64.29;;
61321;Laerm;17737;52.586;13.284;2023-01-01T11:07:47;54.53;50.52;61.63;;
61321;Laerm;17737;52.586;13.284;2023-01-01T11:10:18;54.24;50.73;61.73;;
61321;Laerm;17737;52.586;13.284;2023-01-01T11:12:49;53.80;50.46;61.88;;
61321;Laerm;17737;52.586;13.284;2023-01-01T11:15:38;55.84;50.84;64.20;;
61321;Laerm;17737;52.586;13.284;2023-01-01T11:18:13;54.36;50.74;62.48;;
61321;Laerm;17737;52.586;13.284;2023-01-01T11:20:42;53.37;50.71;63.89;;
61321;Laerm;17737;52.586;13.284;2023-01-01T11:23:23;53.54;50.53;62.66;;
61321;Laerm;17737;52.586;13.284;2023-01-01T11:26:05;53.95;50.67;65.40;;
61321;Laerm;17737;52.586;13.284;2023-01-01T11:28:35;53.25;50.40;64.50;;
61321;Laerm;17737;52.586;13.284;2023-01-01T11:31:15;53.72;51.11;60.60;;
61321;Laerm;17737;52.586;13.284;2023-01-01T11:33:48;53.97;50.70;61.87;;
61321;Laerm;17737;52.586;13.284;2023-01-01T11:36:23;54.93;50.73;61.84;;
61321;Laerm;17737;52.586;13.284;2023-01-01T11:39:07;54.12;50.71;64.36;;
61321;Laerm;17737;52.586;13.284;2023-01-01T11:41:42;54.93;50.63;68.43;;
61321;Laerm;17737;52.586;13.284;2023-01-01T11:44:25;54.68;50.65;67.81;;
61321;Laerm;17737;52.586;13.284;2023-01-01T11:46:56;55.10;50.73;66.16;;
61321;Laerm;17737;52.586;13.284;2023-01-01T11:49:27;56.24;50.60;81.33;;
61321;Laerm;17737;52.586;13.284;2023-01-01T11:51:57;53.84;50.62;67.14;;
61321;Laerm;17737;52.586;13.284;2023-01-01T11:54:31;53.89;50.84;65.49;;
61321;Laerm;17737;52.586;13.284;2023-01-01T11:57:10;54.57;50.77;62.45;;
61321;Laerm;17737;52.586;13.284;2023-01-01T11:59:47;53.80;50.84;60.13;;
61321;Laerm;17737;52.586;13.284;2023-01-01T12:02:35;55.57;50.94;61.93;;
61321;Laerm;17737;52.586;13.284;2023-01-01T12:05:14;54.39;50.69;65.55;;
61321;Laerm;17737;52.586;13.284;2023-01-01T12:07:44;55.54;50.90;62.89;;
61321;Laerm;17737;52.586;13.284;2023-01-01T12:10:21;54.70;50.76;62.08;;
61321;Laerm;17737;52.586;13.284;2023-01-01T12:12:56;55.76;50.85;68.80;;
61321;Laerm;17737;52.586;13.284;2023-01-01T12:15:35;55.75;50.85;65.63;;
61321;Laerm;17737;52.586;13.284;2023-01-01T12:18:14;53.93;50.60;60.70;;
61321;Laerm;17737;52.586;13.284;2023-01-01T12:20:49;56.07;50.85;66.30;;
61321;Laerm;17737;52.586;13.284;2023-01-01T12:23:21;55.56;50.74;61.65;;
61321;Laerm;17737;52.586;13.284;2023-01-01T12:25:59;53.67;50.65;62.80;;
61321;Laerm;17737;52.586;13.284;2023-01-01T12:28:44;53.90;50.73;65.29;;
61321;Laerm;17737;52.586;13.284;2023-01-01T12:31:27;54.02;50.79;62.99;;
61321;Laerm;17737;52.586;13.284;2023-01-01T12:34:12;55.64;50.60;63.10;;
61321;Laerm;17737;52.586;13.284;2023-01-01T12:36:53;53.86;50.73;63.91;;
61321;Laerm;17737;52.586;13.284;2023-01-01T12:43:00;53.15;50.44;63.83;;
61321;Laerm;17737;52.586;13.284;2023-01-01T12:46:11;56.11;51.27;64.04;;
61321;Laerm;17737;52.586;13.284;2023-01-01T12:49:23;55.21;50.86;63.99;;
61321;Laerm;17737;52.586;13.284;2023-01-01T12:52:08;55.03;50.56;63.07;;
61321;Laerm;17737;52.586;13.284;2023-01-01T12:55:24;55.10;50.95;65.43;;
61321;Laerm;17737;52.586;13.284;2023-01-01T12:58:07;54.75;50.87;61.42;;
61321;Laerm;17737;52.586;13.284;2023-01-01T13:00:40;54.34;50.73;62.62;;
61321;Laerm;17737;52.586;13.284;2023-01-01T13:03:18;55.80;50.83;76.10;;
61321;Laerm;17737;52.586;13.284;2023-01-01T13:05:53;56.35;51.07;80.55;;
61321;Laerm;17737;52.586;13.284;2023-01-01T13:08:21;54.98;50.80;80.93;;
61321;Laerm;17737;52.586;13.284;2023-01-01T13:10:54;59.42;50.80;89.40;;
61321;Laerm;17737;52.586;13.284;2023-01-01T13:13:24;54.62;50.79;62.95;;
61321;Laerm;17737;52.586;13.284;2023-01-01T13:15:54;55.06;50.73;62.74;;
61321;Laerm;17737;52.586;13.284;2023-01-01T13:18:31;54.65;50.76;63.89;;
61321;Laerm;17737;52.586;13.284;2023-01-01T13:21:20;55.15;50.80;63.78;;
61321;Laerm;17737;52.586;13.284;2023-01-01T13:23:53;53.96;50.68;59.94;;
61321;Laerm;17737;52.586;13.284;2023-01-01T13:26:39;55.97;50.78;67.44;;
61321;Laerm;17737;52.586;13.284;2023-01-01T13:29:31;55.31;50.70;61.89;;
61321;Laerm;17737;52.586;13.284;2023-01-01T13:32:08;55.69;50.99;64.46;;
61321;Laerm;17737;52.586;13.284;2023-01-01T13:35:15;56.15;51.14;66.20;;
61321;Laerm;17737;52.586;13.284;2023-01-01T13:37:46;55.08;50.99;70.26;;
61321;Laerm;17737;52.586;13.284;2023-01-01T13:40:51;55.91;50.73;66.71;;
61321;Laerm;17737;52.586;13.284;2023-01-01T13:43:29;55.22;50.95;65.60;;
61321;Laerm;17737;52.586;13.284;2023-01-01T13:46:02;57.23;50.65;81.87;;
61321;Laerm;17737;52.586;13.284;2023-01-01T13:49:18;55.07;50.49;63.67;;
61321;Laerm;17737;52.586;13.284;2023-01-01T13:52:00;55.32;50.89;63.37;;
61321;Laerm;17737;52.586;13.284;2023-01-01T13:55:02;56.87;51.03;74.95;;
61321;Laerm;17737;52.586;13.284;2023-01-01T13:58:03;56.02;50.95;62.85;;
61321;Laerm;17737;52.586;13.284;2023-01-01T14:00:44;53.80;50.78;61.36;;
61321;Laerm;17737;52.586;13.284;2023-01-01T14:03:25;54.41;50.81;61.84;;
61321;Laerm;17737;52.586;13.284;2023-01-01T14:05:58;54.24;50.83;61.39;;
61321;Laerm;17737;52.586;13.284;2023-01-01T14:08:32;57.22;50.81;69.55;;
61321;Laerm;17737;52.586;13.284;2023-01-01T14:11:17;54.86;50.72;63.31;;
61321;Laerm;17737;52.586;13.284;2023-01-01T14:13:46;55.26;50.80;61.14;;